Time;durP1;ratioP1;P1;durP2;ratioP2;P2;SDS_P1;SDS_P2;PMS_P1;PMS_P2;Temp;Humidity;BMP_temperature;BMP_pressure;BME280_temperature;BME280_humidity;BME280_pressure;Samples;Min_cycle;Max_cycle;Signal;HPM_P1;HPM_P2
2023/12/28 00:00:28;;;;;;;11.73;9.03;;;;;;;2.22;100.00;95906.88;7405590;19;20380;-91
2023/12/28 00:03:09;;;;;;;9.50;8.50;;;;;;;1.74;100.00;95847.47;7403492;19;20393;-91
2023/12/28 00:05:50;;;;;;;10.23;9.17;;;;;;;2.76;100.00;95981.59;7402291;19;20448;-91
2023/12/28 00:08:32;;;;;;;9.93;8.30;;;;;;;2.36;100.00;95937.22;7405930;19;20467;-91
2023/12/28 00:11:13;;;;;;;9.57;8.50;;;;;;;1.88;100.00;95901.31;7403756;19;20376;-91
2023/12/28 00:13:54;;;;;;;12.27;9.17;;;;;;;2.08;100.00;95917.69;7405234;19;20391;-91
2023/12/28 00:16:37;;;;;;;10.70;9.10;;;;;;;1.87;100.00;95902.34;7403876;19;20401;-91
2023/12/28 00:19:20;;;;;;;9.10;8.03;;;;;;;2.28;100.00;95973.16;7404234;19;20728;-91
2023/12/28 00:22:02;;;;;;;10.23;8.63;;;;;;;1.90;100.00;95914.78;7403123;19;20411;-91
2023/12/28 00:24:43;;;;;;;10.53;8.33;;;;;;;1.87;100.00;95897.19;7403077;19;20889;-91
2023/12/28 00:27:24;;;;;;;11.10;9.13;;;;;;;2.01;100.00;95919.75;7403739;19;20364;-91
2023/12/28 00:30:06;;;;;;;11.87;8.80;;;;;;;1.97;100.00;95939.41;7403210;19;20373;-91
2023/12/28 00:32:47;;;;;;;9.83;8.83;;;;;;;1.61;100.00;95893.69;7401439;19;20894;-91
2023/12/28 00:35:28;;;;;;;8.60;7.70;;;;;;;1.67;100.00;95903.03;7403719;19;20384;-92
2023/12/28 00:38:09;;;;;;;11.80;9.67;;;;;;;1.62;100.00;95888.28;7404071;19;20369;-91
2023/12/28 00:40:51;;;;;;;10.83;9.73;;;;;;;1.76;100.00;95901.53;7403075;19;20388;-92
2023/12/28 00:43:32;;;;;;;9.23;8.33;;;;;;;1.64;100.00;95881.03;7402135;19;20370;-92
2023/12/28 00:46:13;;;;;;;9.20;7.80;;;;;;;1.92;100.00;95921.25;7401221;19;20876;-91
2023/12/28 00:48:54;;;;;;;8.83;6.67;;;;;;;1.81;100.00;95899.72;7402772;19;20369;-91
2023/12/28 00:51:35;;;;;;;7.70;6.93;;;;;;;1.84;100.00;95901.06;7402771;19;20404;-91
2023/12/28 00:54:16;;;;;;;7.57;6.97;;;;;;;1.71;100.00;95886.00;7402538;19;20710;-92
2023/12/28 00:56:57;;;;;;;9.83;7.27;;;;;;;1.48;100.00;95906.06;7403607;19;20397;-91
2023/12/28 00:59:40;;;;;;;8.67;7.33;;;;;;;1.72;100.00;95936.69;7403396;19;20400;-91
2023/12/28 01:02:21;;;;;;;8.40;7.60;;;;;;;1.72;100.00;95908.25;7401509;19;20413;-91
2023/12/28 01:05:04;;;;;;;8.70;6.80;;;;;;;1.51;100.00;95866.75;7402522;19;20385;-91
2023/12/28 01:07:48;;;;;;;9.07;8.10;;;;;;;1.69;100.00;95903.56;7404504;19;20373;-92
2023/12/28 01:10:29;;;;;;;9.50;6.80;;;;;;;2.09;100.00;95963.25;7402585;19;20393;-92
2023/12/28 01:13:10;;;;;;;16.23;8.07;;;;;;;2.39;100.00;95975.53;7399380;19;20496;-92
2023/12/28 01:15:51;;;;;;;9.40;8.70;;;;;;;1.99;100.00;95911.47;7400855;19;20387;-93
2023/12/28 01:18:33;;;;;;;9.30;7.00;;;;;;;1.92;100.00;95930.81;7401558;19;20368;-92
2023/12/28 01:21:14;;;;;;;8.30;7.13;;;;;;;1.74;100.00;95919.91;7401661;19;20379;-92
2023/12/28 01:23:55;;;;;;;8.03;6.43;;;;;;;2.14;100.00;95965.09;7401474;19;20404;-92
2023/12/28 01:26:36;;;;;;;10.00;8.37;;;;;;;2.10;100.00;95964.06;7399252;19;20381;-92
2023/12/28 01:29:17;;;;;;;9.47;8.57;;;;;;;1.66;100.00;95911.81;7399818;19;20368;-92
2023/12/28 01:31:58;;;;;;;10.57;7.73;;;;;;;1.97;100.00;95977.44;7399870;19;20432;-92
2023/12/28 01:34:41;;;;;;;10.90;9.80;;;;;;;1.55;100.00;95912.78;7400633;19;20392;-92
2023/12/28 01:37:23;;;;;;;12.30;10.07;;;;;;;1.75;100.00;95949.13;7400827;19;20448;-92
2023/12/28 01:40:05;;;;;;;16.63;10.37;;;;;;;2.36;100.00;96030.44;7399991;19;20377;-92
2023/12/28 01:42:46;;;;;;;11.03;8.50;;;;;;;2.02;100.00;95978.22;7398063;19;20703;-93
2023/12/28 01:45:27;;;;;;;12.80;9.23;;;;;;;2.06;100.00;95961.16;7399014;19;20858;-92
2023/12/28 01:48:09;;;;;;;13.30;9.57;;;;;;;2.45;100.00;96015.16;7399643;19;20389;-92
2023/12/28 01:50:50;;;;;;;11.53;9.70;;;;;;;1.60;100.00;95887.75;7399350;19;20419;-92
2023/12/28 01:53:31;;;;;;;7.47;6.60;;;;;;;2.08;100.00;95947.97;7397524;19;20893;-92
2023/12/28 01:56:12;;;;;;;12.60;7.90;;;;;;;1.73;100.00;95922.72;7399597;19;20373;-92
2023/12/28 01:58:54;;;;;;;11.40;10.13;;;;;;;1.70;100.00;95955.06;7399253;19;20773;-92
2023/12/28 02:01:36;;;;;;;11.80;8.87;;;;;;;2.15;100.00;96010.66;7398278;19;20396;-92
2023/12/28 02:04:26;;;;;;;13.40;9.13;;;;;;;1.88;100.00;95966.00;7400379;19;20372;-92
2023/12/28 02:07:08;;;;;;;9.60;8.40;;;;;;;1.18;100.00;95846.44;7400115;19;20393;-92
2023/12/28 02:09:50;;;;;;;12.93;9.00;;;;;;;1.15;100.00;95896.00;7398610;19;20397;-92
2023/12/28 02:12:31;;;;;;;11.27;7.63;;;;;;;1.56;100.00;95948.75;7399637;19;20384;-92
2023/12/28 02:15:13;;;;;;;11.03;7.83;;;;;;;2.01;100.00;95999.97;7399376;19;20389;-92
2023/12/28 02:18:19;;;;;;;13.53;8.37;;;;;;;1.41;100.00;95891.78;7398323;19;20384;-92
2023/12/28 02:21:02;;;;;;;9.97;8.07;;;;;;;1.70;100.00;95925.81;7398901;19;20674;-92
2023/12/28 02:23:50;;;;;;;9.90;6.80;;;;;;;2.17;100.00;95997.44;7397122;19;20412;-92
2023/12/28 02:26:31;;;;;;;9.07;5.90;;;;;;;1.38;100.00;95894.88;7397324;19;20381;-92
2023/12/28 02:29:15;;;;;;;8.53;7.67;;;;;;;1.40;100.00;95879.88;7396762;19;20368;-92
2023/12/28 02:32:06;;;;;;;7.83;7.00;;;;;;;1.18;100.00;95859.34;7397058;19;20413;-92
2023/12/28 02:34:54;;;;;;;8.57;6.23;;;;;;;1.17;100.00;95868.13;7398659;19;20374;-92
2023/12/28 02:37:37;;;;;;;8.60;7.27;;;;;;;0.88;100.00;95854.75;7397848;19;20377;-92
2023/12/28 02:40:19;;;;;;;10.70;7.17;;;;;;;1.86;100.00;95992.13;7398298;19;20360;-92
2023/12/28 02:43:00;;;;;;;8.00;7.20;;;;;;;1.55;100.00;95946.41;7396778;19;20412;-92
2023/12/28 02:45:41;;;;;;;6.97;6.27;;;;;;;1.80;100.00;95987.94;7397045;19;20845;-92
2023/12/28 02:48:23;;;;;;;6.93;6.23;;;;;;;1.82;100.00;96004.75;7398633;19;20389;-92
2023/12/28 02:51:04;;;;;;;9.33;6.20;;;;;;;1.27;100.00;95913.91;7397915;19;20376;-92
2023/12/28 02:53:45;;;;;;;7.50;6.70;;;;;;;1.14;100.00;95891.88;7397831;19;20397;-92
2023/12/28 02:56:27;;;;;;;6.53;6.03;;;;;;;1.42;100.00;95925.13;7397950;19;20771;-92
2023/12/28 02:59:09;;;;;;;7.03;6.33;;;;;;;1.29;100.00;95893.75;7399441;19;20373;-92
2023/12/28 03:01:50;;;;;;;10.03;6.73;;;;;;;1.34;100.00;95896.41;7396902;19;20905;-93
2023/12/28 03:04:31;;;;;;;8.30;6.00;;;;;;;1.53;100.00;95915.63;7398072;19;20384;-92
2023/12/28 03:07:13;;;;;;;7.67;6.17;;;;;;;0.80;100.00;95829.38;7397709;19;20372;-92
2023/12/28 03:09:54;;;;;;;7.77;5.80;;;;;;;0.57;100.00;95851.94;7402609;19;20376;-92
2023/12/28 03:12:35;;;;;;;7.60;6.03;;;;;;;0.88;100.00;95902.00;7402840;19;20913;-92
2023/12/28 03:15:17;;;;;;;7.80;6.67;;;;;;;0.99;100.00;95889.19;7404241;19;20373;-92
2023/12/28 03:17:58;;;;;;;10.27;8.07;;;;;;;1.35;100.00;95921.22;7404451;19;20862;-90
2023/12/28 03:20:39;;;;;;;8.40;7.70;;;;;;;1.44;100.00;95948.94;7405117;19;20396;-92
2023/12/28 03:23:20;;;;;;;8.97;8.10;;;;;;;1.06;100.00;95911.22;7401735;19;20415;-92
2023/12/28 03:26:01;;;;;;;6.80;6.17;;;;;;;0.74;100.00;95882.00;7402997;19;20460;-92
2023/12/28 03:28:43;;;;;;;8.50;7.60;;;;;;;0.62;100.00;95875.19;7405054;19;20373;-92
2023/12/28 03:31:24;;;;;;;8.53;7.30;;;;;;;0.93;100.00;95878.03;7404370;19;20364;-93
2023/12/28 03:34:05;;;;;;;13.33;7.60;;;;;;;1.38;100.00;95949.94;7403860;19;20381;-91
2023/12/28 03:36:46;;;;;;;9.00;6.30;;;;;;;1.13;100.00;95922.09;7403854;19;20384;-92
2023/12/28 03:39:27;;;;;;;8.10;7.10;;;;;;;1.11;100.00;95951.81;7403699;19;20380;-92
2023/12/28 03:42:09;;;;;;;9.60;7.10;;;;;;;1.09;100.00;95957.22;7402725;19;20416;-92
2023/12/28 03:44:50;;;;;;;7.00;6.30;;;;;;;1.10;100.00;95948.44;7403406;19;20396;-92
2023/12/28 03:47:32;;;;;;;9.63;7.13;;;;;;;0.61;100.00;95921.91;7405766;19;20363;-92
2023/12/28 03:50:15;;;;;;;6.87;6.27;;;;;;;1.36;100.00;96006.28;7404415;19;20436;-92
2023/12/28 03:52:58;;;;;;;6.97;6.13;;;;;;;0.68;100.00;95909.59;7401306;19;20412;-93
2023/12/28 03:55:39;;;;;;;9.30;7.30;;;;;;;0.77;100.00;95944.31;7404140;19;20498;-93
2023/12/28 03:58:21;;;;;;;7.60;6.57;;;;;;;0.51;100.00;95865.84;7404330;19;20380;-93
2023/12/28 04:01:02;;;;;;;8.57;7.63;;;;;;;0.50;100.00;95864.28;7403141;19;20388;-92
2023/12/28 04:03:43;;;;;;;8.20;7.00;;;;;;;1.15;100.00;95953.63;7402873;19;20356;-92
2023/12/28 04:06:24;;;;;;;10.87;8.30;;;;;;;1.18;100.00;95952.38;7401230;19;20407;-93
2023/12/28 04:09:05;;;;;;;9.17;8.10;;;;;;;1.15;100.00;95945.88;7402447;19;20384;-92
2023/12/28 04:11:46;;;;;;;14.93;7.50;;;;;;;1.05;100.00;95914.03;7401833;19;20472;-92
2023/12/28 04:14:28;;;;;;;8.93;7.10;;;;;;;1.23;100.00;95936.91;7402918;19;20381;-92
2023/12/28 04:17:09;;;;;;;8.10;6.90;;;;;;;1.31;100.00;95938.25;7403182;19;20367;-92
2023/12/28 04:19:50;;;;;;;8.03;6.40;;;;;;;0.96;100.00;95874.19;7404681;19;20361;-93
2023/12/28 04:22:31;;;;;;;8.33;6.53;;;;;;;1.30;100.00;95929.72;7398717;19;20416;-92
2023/12/28 04:25:12;;;;;;;6.97;6.33;;;;;;;1.34;100.00;95917.06;7401845;19;20460;-92
2023/12/28 04:27:54;;;;;;;7.93;6.40;;;;;;;0.92;100.00;95881.66;7402083;19;20393;-93
2023/12/28 04:30:35;;;;;;;6.50;5.77;;;;;;;1.23;100.00;95913.66;7402856;19;20357;-93
2023/12/28 04:33:19;;;;;;;8.70;6.50;;;;;;;1.41;100.00;95915.81;7400311;19;20442;-92
2023/12/28 04:36:07;;;;;;;7.90;7.10;;;;;;;1.19;100.00;95907.44;7401923;19;20853;-93
2023/12/28 04:38:49;;;;;;;8.90;6.40;;;;;;;1.29;100.00;95910.06;7402689;19;20858;-92
2023/12/28 04:41:30;;;;;;;8.03;6.33;;;;;;;1.61;100.00;95945.44;7401233;19;20407;-93
2023/12/28 04:44:12;;;;;;;7.90;6.83;;;;;;;1.99;100.00;96006.44;7401330;19;20369;-92
2023/12/28 04:46:53;;;;;;;8.43;6.63;;;;;;;1.83;100.00;95964.19;7399253;19;20409;-92
2023/12/28 04:49:35;;;;;;;8.97;7.00;;;;;;;1.33;100.00;95903.38;7402759;19;20376;-92
2023/12/28 04:52:16;;;;;;;8.80;6.83;;;;;;;1.60;100.00;95934.31;7409880;19;20403;-93
2023/12/28 04:54:58;;;;;;;7.83;6.43;;;;;;;1.70;100.00;95944.72;7401214;19;20469;-93
2023/12/28 04:57:44;;;;;;;8.60;7.80;;;;;;;1.52;100.00;95893.38;7400598;19;20411;-92
2023/12/28 05:00:25;;;;;;;9.03;7.13;;;;;;;1.67;100.00;95921.13;7400438;19;20440;-92
2023/12/28 05:03:06;;;;;;;8.10;6.97;;;;;;;1.97;100.00;95943.81;7398398;19;20423;-92
2023/12/28 05:05:47;;;;;;;7.30;5.73;;;;;;;1.55;100.00;95856.69;7399713;19;20468;-92
2023/12/28 05:08:28;;;;;;;6.60;6.00;;;;;;;1.81;100.00;95907.50;7400764;19;20830;-93
2023/12/28 05:11:09;;;;;;;8.40;7.10;;;;;;;2.10;100.00;95938.94;7401013;19;20381;-93
2023/12/28 05:13:50;;;;;;;7.07;6.47;;;;;;;1.44;100.00;95831.84;7399997;19;20391;-92
2023/12/28 05:16:32;;;;;;;9.50;8.20;;;;;;;1.96;100.00;95891.25;7401037;19;20397;-93
2023/12/28 05:19:13;;;;;;;9.37;7.00;;;;;;;1.97;100.00;95889.47;7400789;19;20383;-92
2023/12/28 05:21:55;;;;;;;8.93;7.23;;;;;;;2.12;100.00;95899.88;7399998;19;20459;-92
2023/12/28 05:24:36;;;;;;;9.30;6.70;;;;;;;2.19;100.00;95891.84;7397697;19;20405;-93
2023/12/28 05:27:17;;;;;;;8.23;7.40;;;;;;;2.53;100.00;95941.41;7399654;19;20393;-92
2023/12/28 05:29:58;;;;;;;7.97;7.00;;;;;;;2.28;100.00;95887.75;7399736;19;20385;-92
2023/12/28 05:32:39;;;;;;;7.83;7.03;;;;;;;2.76;100.00;95968.63;7397512;19;20408;-93
2023/12/28 05:35:20;;;;;;;12.67;8.20;;;;;;;2.27;100.00;95894.72;7399523;19;20436;-93
2023/12/28 05:38:02;;;;;;;9.77;8.30;;;;;;;2.70;100.00;95940.13;7401634;19;20381;-92
2023/12/28 05:40:44;;;;;;;8.07;7.10;;;;;;;2.99;100.00;95962.97;7399226;19;20364;-92
2023/12/28 05:43:25;;;;;;;8.00;7.20;;;;;;;2.54;100.00;95894.53;7397374;19;20446;-92
2023/12/28 05:46:06;;;;;;;7.33;6.57;;;;;;;2.48;100.00;95879.22;7398687;19;20421;-92
2023/12/28 05:48:47;;;;;;;8.33;7.60;;;;;;;2.77;100.00;95918.38;7398944;19;20381;-92
2023/12/28 05:51:29;;;;;;;6.43;5.83;;;;;;;2.86;100.00;95927.19;7398410;19;20400;-92
2023/12/28 05:54:10;;;;;;;7.87;7.07;;;;;;;2.80;100.00;95925.66;7398906;19;20385;-92
2023/12/28 05:56:51;;;;;;;9.37;7.37;;;;;;;2.44;100.00;95883.38;7399653;19;20376;-92
2023/12/28 05:59:32;;;;;;;10.13;7.57;;;;;;;2.49;100.00;95902.25;7399434;19;20385;-93
2023/12/28 06:02:13;;;;;;;10.83;8.97;;;;;;;2.77;100.00;95962.44;7397691;19;20425;-93
2023/12/28 06:04:54;;;;;;;8.57;7.77;;;;;;;3.16;100.00;96030.88;7400318;19;20396;-92
2023/12/28 06:07:35;;;;;;;11.10;8.03;;;;;;;2.68;100.00;95949.19;7398469;19;20385;-92
2023/12/28 06:10:17;;;;;;;8.07;7.00;;;;;;;2.99;100.00;95984.47;7398408;19;20384;-92
2023/12/28 06:12:58;;;;;;;7.93;7.13;;;;;;;2.51;100.00;95907.22;7397009;19;20941;-92
2023/12/28 06:15:39;;;;;;;8.97;7.33;;;;;;;3.09;100.00;96007.03;7397985;19;20939;-93
2023/12/28 06:18:20;;;;;;;7.87;7.10;;;;;;;2.51;100.00;95908.00;7398149;19;20396;-92
2023/12/28 06:21:02;;;;;;;10.70;7.17;;;;;;;2.79;100.00;95950.78;7400320;19;20360;-92
2023/12/28 06:23:43;;;;;;;7.63;6.70;;;;;;;3.08;100.00;96002.91;7397154;19;20419;-92
2023/12/28 06:26:25;;;;;;;7.27;6.57;;;;;;;2.85;100.00;95972.28;7397394;19;20384;-92
2023/12/28 06:29:06;;;;;;;10.07;7.57;;;;;;;2.86;100.00;95984.19;7398672;19;20381;-93
2023/12/28 06:31:47;;;;;;;12.50;8.27;;;;;;;2.72;100.00;95953.59;7397840;19;20388;-92
2023/12/28 06:34:28;;;;;;;13.30;9.20;;;;;;;2.71;100.00;95954.63;7398304;19;20384;-92
2023/12/28 06:37:09;;;;;;;8.83;7.90;;;;;;;3.23;100.00;96005.50;7398313;19;20397;-92
2023/12/28 06:39:51;;;;;;;7.53;6.40;;;;;;;3.28;100.00;95971.78;7397904;19;20469;-91
2023/12/28 06:42:32;;;;;;;8.77;7.00;;;;;;;2.95;100.00;95918.66;7396205;19;20425;-92
2023/12/28 06:45:13;;;;;;;8.00;7.17;;;;;;;3.01;100.00;95943.53;7395066;19;20391;-92
2023/12/28 06:47:54;;;;;;;7.37;6.67;;;;;;;3.17;100.00;95985.03;7397330;19;20385;-93
2023/12/28 06:50:35;;;;;;;6.90;6.20;;;;;;;2.97;100.00;95971.00;7397457;19;20372;-92
2023/12/28 06:56:01;;;;;;;11.37;7.27;;;;;;;2.72;100.00;95940.66;7397488;19;20380;-92
2023/12/28 06:58:42;;;;;;;8.57;7.40;;;;;;;3.13;100.00;96009.91;7399224;19;20369;-92
2023/12/28 07:01:23;;;;;;;9.40;8.43;;;;;;;2.70;100.00;95937.53;7398474;19;20391;-92
2023/12/28 07:04:05;;;;;;;11.67;7.87;;;;;;;2.90;100.00;95959.34;7399594;19;20376;-92
2023/12/28 07:06:46;;;;;;;11.17;8.83;;;;;;;3.10;100.00;95953.38;7396363;19;20419;-93
2023/12/28 07:09:27;;;;;;;11.83;9.07;;;;;;;3.20;100.00;95990.47;7399405;19;20857;-92
2023/12/28 07:12:09;;;;;;;16.13;11.93;;;;;;;3.48;100.00;96028.06;7396598;19;20416;-92
2023/12/28 07:14:50;;;;;;;10.83;9.03;;;;;;;3.13;100.00;95982.16;7397289;19;20850;-92
2023/12/28 07:17:31;;;;;;;12.67;10.27;;;;;;;3.19;100.00;95982.94;7397012;19;20748;-93
2023/12/28 07:20:13;;;;;;;10.80;9.70;;;;;;;3.14;100.00;95944.81;7397285;19;20681;-92
2023/12/28 07:22:54;;;;;;;9.00;8.20;;;;;;;3.17;100.00;95935.78;7395963;19;20789;-92
2023/12/28 07:25:35;;;;;;;8.47;7.53;;;;;;;3.38;100.00;95978.78;7397282;19;20369;-92
2023/12/28 07:28:16;;;;;;;8.17;7.37;;;;;;;3.34;100.00;95980.34;7397093;19;20385;-92
2023/12/28 07:30:57;;;;;;;8.33;6.93;;;;;;;3.20;100.00;95937.84;7398595;19;20393;-92
2023/12/28 07:33:38;;;;;;;8.07;6.87;;;;;;;3.42;100.00;95968.66;7397107;19;20379;-92
2023/12/28 07:36:20;;;;;;;8.77;7.87;;;;;;;3.99;100.00;96076.59;7396677;19;20376;-92
2023/12/28 07:39:03;;;;;;;13.10;9.93;;;;;;;3.69;100.00;96028.06;7397201;19;20373;-91
2023/12/28 07:41:44;;;;;;;10.93;9.40;;;;;;;3.51;100.00;96004.22;7395908;19;20925;-90
2023/12/28 07:44:26;;;;;;;11.23;9.97;;;;;;;3.42;100.00;95997.97;7396878;19;20385;-91
2023/12/28 07:47:07;;;;;;;12.10;10.90;;;;;;;3.18;100.00;95971.81;7395430;19;20376;-90
2023/12/28 07:49:48;;;;;;;11.43;8.97;;;;;;;3.27;100.00;95962.44;7397317;19;20404;-91
2023/12/28 07:52:29;;;;;;;13.50;9.53;;;;;;;3.49;100.00;95992.53;7395012;19;20922;-91
2023/12/28 07:55:10;;;;;;;12.97;11.67;;;;;;;3.54;100.00;95979.56;7397547;19;20376;-90
2023/12/28 07:57:52;;;;;;;11.13;8.57;;;;;;;3.09;100.00;95926.69;7403305;19;20860;-91
2023/12/28 08:00:33;;;;;;;11.40;10.07;;;;;;;3.60;100.00;95994.09;7403947;19;20357;-91
2023/12/28 08:03:17;;;;;;;13.27;10.00;;;;;;;3.57;100.00;96003.19;7400694;19;20408;-90
2023/12/28 08:05:59;;;;;;;13.93;11.87;;;;;;;3.81;100.00;96031.16;7401609;19;20384;-90
2023/12/28 08:08:40;;;;;;;12.70;11.00;;;;;;;3.30;100.00;95971.56;7403339;19;20860;-90
2023/12/28 08:11:21;;;;;;;11.63;10.20;;;;;;;3.39;100.00;95980.34;7404311;19;20369;-90
2023/12/28 08:14:02;;;;;;;10.03;8.70;;;;;;;3.81;100.00;96028.56;7401985;19;20854;-91
2023/12/28 08:16:43;;;;;;;10.07;8.50;;;;;;;3.18;100.00;95922.53;7403063;19;20868;-90
2023/12/28 08:19:24;;;;;;;9.63;8.73;;;;;;;3.57;100.00;95979.84;7401323;19;20388;-91
2023/12/28 08:22:06;;;;;;;10.23;8.97;;;;;;;3.91;100.00;96028.56;7401190;19;20416;-90
2023/12/28 08:24:47;;;;;;;8.73;7.40;;;;;;;3.13;100.00;95901.00;7402469;19;20385;-91
2023/12/28 08:27:28;;;;;;;7.73;7.03;;;;;;;3.75;100.00;95983.69;7402047;19;20373;-90
2023/12/28 08:30:10;;;;;;;8.97;7.03;;;;;;;3.76;100.00;95987.84;7402124;19;20409;-90
2023/12/28 08:32:51;;;;;;;10.93;8.43;;;;;;;3.82;100.00;95986.78;7399208;19;20425;-89
2023/12/28 08:35:32;;;;;;;13.13;10.90;;;;;;;4.18;100.00;96046.44;7401934;19;20384;-90
2023/12/28 08:38:13;;;;;;;9.77;8.87;;;;;;;4.52;100.00;96088.16;7401995;19;20388;-90
2023/12/28 08:40:54;;;;;;;9.00;8.13;;;;;;;4.06;100.00;96022.56;7400538;19;20397;-91
2023/12/28 08:43:36;;;;;;;9.90;7.43;;;;;;;4.60;100.00;96081.63;7401432;19;20409;-90
2023/12/28 08:46:17;;;;;;;6.27;5.70;;;;;;;4.02;100.00;95990.38;7399931;19;20377;-89
2023/12/28 08:48:59;;;;;;;8.70;7.67;;;;;;;4.41;100.00;96026.88;7400942;19;20651;-90
2023/12/28 08:51:40;;;;;;;8.77;6.30;;;;;;;4.06;100.00;95971.41;7400714;19;20385;-90
2023/12/28 08:54:21;;;;;;;11.60;8.27;;;;;;;4.31;100.00;96022.50;7402502;19;20842;-90
2023/12/28 08:57:02;;;;;;;8.23;7.37;;;;;;;4.66;100.00;96052.78;7401371;19;20869;-90
2023/12/28 08:59:44;;;;;;;10.80;7.57;;;;;;;4.11;100.00;95968.81;7401376;19;20704;-91
2023/12/28 09:02:27;;;;;;;8.67;7.77;;;;;;;4.62;100.00;96014.56;7399839;19;20404;-90
2023/12/28 09:05:09;;;;;;;7.57;6.77;;;;;;;4.45;100.00;95999.31;7400528;19;20391;-90
2023/12/28 09:07:51;;;;;;;8.37;6.30;;;;;;;4.69;100.00;96028.06;7398734;19;20384;-90
2023/12/28 09:10:32;;;;;;;8.93;7.43;;;;;;;4.31;100.00;95985.34;7400559;19;20356;-90
2023/12/28 09:13:17;;;;;;;7.60;6.67;;;;;;;4.78;100.00;96052.47;7397917;19;20420;-90
2023/12/28 09:15:58;;;;;;;7.53;6.87;;;;;;;4.78;100.00;96039.47;7399867;19;20384;-90
2023/12/28 09:18:39;;;;;;;8.40;7.60;;;;;;;4.94;100.00;96087.75;7401038;19;20380;-90
2023/12/28 09:21:20;;;;;;;8.93;8.10;;;;;;;4.73;100.00;96050.66;7399659;19;20393;-90
2023/12/28 09:24:02;;;;;;;9.70;8.80;;;;;;;4.92;100.00;96076.84;7398800;19;20383;-89
2023/12/28 09:26:43;;;;;;;7.80;7.10;;;;;;;4.47;100.00;95998.00;7399273;19;20400;-90
2023/12/28 09:29:24;;;;;;;9.63;8.70;;;;;;;4.89;100.00;96045.38;7400504;19;20448;-89
2023/12/28 09:32:06;;;;;;;26.60;20.77;;;;;;;5.02;100.00;96063.00;7402301;19;20400;-90
2023/12/28 09:34:47;;;;;;;13.07;10.57;;;;;;;4.73;100.00;96003.09;7404603;19;20464;-89
2023/12/28 09:37:28;;;;;;;14.23;10.33;;;;;;;4.90;100.00;96018.31;7406373;19;20385;-90
2023/12/28 09:40:10;;;;;;;10.70;9.13;;;;;;;4.84;100.00;95990.81;7418734;19;20381;-90
2023/12/28 09:43:20;;;;;;;8.57;7.77;;;;;;;5.69;100.00;96119.56;7410664;19;20440;-89
2023/12/28 09:46:02;;;;;;;6.90;6.20;;;;;;;5.09;100.00;96027.06;7400446;19;20393;-90
2023/12/28 09:48:44;;;;;;;6.77;6.10;;;;;;;5.43;100.00;96060.16;7399882;19;20399;-90
2023/12/28 09:51:25;;;;;;;10.30;6.90;;;;;;;5.41;100.00;96065.63;7399654;19;20361;-89
2023/12/28 09:54:06;;;;;;;9.63;7.17;;;;;;;4.93;100.00;95992.59;7400286;19;20389;-89
2023/12/28 09:56:48;;;;;;;8.20;5.70;;;;;;;5.19;100.00;96010.63;7399069;19;20368;-89
2023/12/28 09:59:30;;;;;;;6.87;6.23;;;;;;;5.32;100.00;96025.63;7398693;19;20419;-89
2023/12/28 10:02:12;;;;;;;7.77;7.07;;;;;;;5.56;100.00;96044.69;7397697;19;20916;-89
2023/12/28 10:04:53;;;;;;;7.43;5.70;;;;;;;5.57;100.00;96048.88;7398333;19;20364;-89
2023/12/28 10:07:40;;;;;;;5.87;5.27;;;;;;;5.71;100.00;96036.00;7398377;19;20388;-89
2023/12/28 10:10:22;;;;;;;8.40;5.83;;;;;;;4.58;100.00;95845.44;7398986;19;20381;-89
2023/12/28 10:13:03;;;;;;;4.97;4.60;;;;;;;5.92;100.00;96028.78;7397348;19;20435;-89
2023/12/28 10:15:44;;;;;;;6.37;4.37;;;;;;;6.77;100.00;96124.59;7399010;19;20364;-89
2023/12/28 10:18:26;;;;;;;4.40;3.70;;;;;;;6.94;100.00;96126.78;7396908;19;20385;-89
2023/12/28 10:21:07;;;;;;;7.60;4.67;;;;;;;6.27;100.00;96014.63;7401183;19;20469;-88
2023/12/28 10:23:48;;;;;;;15.27;13.50;;;;;;;6.38;100.00;96002.28;7397256;19;20416;-88
2023/12/28 10:26:29;;;;;;;8.60;7.70;;;;;;;6.20;100.00;95970.66;7397241;19;20383;-89
2023/12/28 10:29:11;;;;;;;5.87;4.97;;;;;;;6.63;100.00;96014.97;7398612;19;20420;-89
2023/12/28 10:31:53;;;;;;;5.40;4.90;;;;;;;6.82;100.00;96054.91;7398845;19;20491;-89
2023/12/28 10:34:34;;;;;;;5.57;4.10;;;;;;;6.85;100.00;96064.78;7398435;19;20385;-88
2023/12/28 10:37:20;;;;;;;4.87;4.00;;;;;;;6.95;100.00;96069.09;7398108;19;20671;-88
2023/12/28 10:40:06;;;;;;;4.80;4.40;;;;;;;6.92;100.00;96055.84;7397193;19;20857;-89
2023/12/28 10:43:08;;;;;;;5.53;5.03;;;;;;;6.84;100.00;96036.38;7397021;19;20725;-90
2023/12/28 10:45:52;;;;;;;5.70;5.10;;;;;;;7.22;100.00;96089.38;7399904;19;20873;-90
2023/12/28 10:48:42;;;;;;;6.13;5.57;;;;;;;6.96;100.00;96038.56;7396910;19;20391;-90
2023/12/28 10:51:27;;;;;;;7.43;4.63;;;;;;;6.69;100.00;95984.41;7399182;19;20851;-90
2023/12/28 10:54:11;;;;;;;6.50;5.87;;;;;;;7.40;100.00;96090.44;7396619;19;20372;-90
2023/12/28 10:57:16;;;;;;;6.80;6.10;;;;;;;7.38;100.00;96100.38;7397414;19;20394;-91
2023/12/28 11:00:06;;;;;;;8.50;7.70;;;;;;;7.31;100.00;96092.16;7396733;19;20388;-91
2023/12/28 11:02:52;;;;;;;8.70;6.47;;;;;;;6.77;100.00;96015.88;7395658;19;20412;-90
2023/12/28 11:05:35;;;;;;;8.00;6.30;;;;;;;6.68;100.00;95990.69;7395730;19;20449;-90
2023/12/28 11:08:19;;;;;;;8.47;6.93;;;;;;;6.68;100.00;96001.91;7397211;19;20393;-91
2023/12/28 11:11:01;;;;;;;7.13;6.10;;;;;;;6.75;100.00;96017.97;7396552;19;20396;-91
2023/12/28 11:13:45;;;;;;;7.40;6.70;;;;;;;6.45;100.00;95953.16;7396455;19;20396;-91
2023/12/28 11:16:28;;;;;;;7.70;6.80;;;;;;;7.09;100.00;96053.53;7396132;19;20369;-91
2023/12/28 11:19:11;;;;;;;12.10;7.37;;;;;;;6.81;100.00;95987.38;7396066;19;20858;-90
2023/12/28 11:21:53;;;;;;;12.50;9.77;;;;;;;6.70;100.00;95945.03;7396151;19;20416;-91
2023/12/28 11:24:34;;;;;;;9.63;7.80;;;;;;;7.35;100.00;96035.69;7394807;19;20460;-90
2023/12/28 11:27:16;;;;;;;4.10;3.70;;;;;;;7.53;100.00;96047.16;7393918;19;20393;-90
2023/12/28 11:29:57;;;;;;;5.70;3.87;;;;;;;7.86;100.00;96067.03;7396795;19;20394;-91
2023/12/28 11:32:43;;;;;;;7.90;5.90;;;;;;;7.46;100.00;96016.22;7402270;19;20419;-91
2023/12/28 11:35:35;;;;;;;15.63;14.23;;;;;;;7.30;100.00;95996.59;7404080;19;20372;-91
2023/12/28 11:38:17;;;;;;;6.43;5.83;;;;;;;7.03;100.00;95932.78;7405193;19;20754;-91
2023/12/28 11:41:03;;;;;;;8.40;6.20;;;;;;;7.16;100.00;95954.78;7404330;19;20396;-90
2023/12/28 11:43:53;;;;;;;8.30;7.60;;;;;;;7.95;100.00;96072.34;7403760;19;20375;-90
2023/12/28 11:46:39;;;;;;;9.37;7.03;;;;;;;7.84;100.00;96029.97;7402048;19;20369;-90
2023/12/28 11:49:27;;;;;;;6.13;4.40;;;;;;;7.79;100.00;96003.91;7403628;19;20881;-90
2023/12/28 11:52:11;;;;;;;4.10;3.70;;;;;;;8.46;100.00;96085.34;7402870;19;20479;-91
2023/12/28 11:54:52;;;;;;;7.00;4.07;;;;;;;7.63;100.00;95955.59;7402959;19;20389;-91
2023/12/28 11:57:34;;;;;;;4.43;3.30;;;;;;;7.76;100.00;95966.09;7405229;19;20365;-90
2023/12/28 12:00:15;;;;;;;4.50;3.90;;;;;;;7.95;100.00;95986.13;7403995;19;20666;-91
2023/12/28 12:02:57;;;;;;;4.43;4.03;;;;;;;7.95;100.00;95978.28;7401668;19;20396;-90
2023/12/28 12:05:38;;;;;;;3.87;3.57;;;;;;;8.05;100.00;96002.41;7401827;19;20973;-90
2023/12/28 12:08:19;;;;;;;5.90;4.20;;;;;;;7.90;100.00;95968.72;7403352;19;20420;-90
2023/12/28 12:11:06;;;;;;;4.53;3.83;;;;;;;8.55;100.00;96062.69;7402950;19;20389;-90
2023/12/28 12:13:51;;;;;;;3.83;3.53;;;;;;;8.16;100.00;95994.38;7402746;19;20400;-90
2023/12/28 12:16:32;;;;;;;2.90;2.70;;;;;;;8.06;100.00;95983.03;7403142;19;20487;-91
2023/12/28 12:19:13;;;;;;;4.67;4.27;;;;;;;7.90;100.00;95952.25;7403042;19;20404;-91
2023/12/28 12:21:56;;;;;;;3.53;3.33;;;;;;;8.65;100.00;96059.88;7400865;19;20413;-91
2023/12/28 12:24:37;;;;;;;15.47;13.50;;;;;;;7.97;100.00;95952.63;7399901;19;20523;-90
2023/12/28 12:27:19;;;;;;;6.10;5.30;;;;;;;8.25;100.00;96003.88;7399108;19;20463;-90
2023/12/28 12:30:01;;;;;;;4.70;4.30;;;;;;;7.45;100.00;95884.88;7402284;19;20387;-91
2023/12/28 12:32:43;;;;;;;4.50;4.10;;;;;;;7.96;100.00;95958.94;7399766;19;20416;-91
2023/12/28 12:35:24;;;;;;;4.50;4.10;;;;;;;8.49;100.00;96029.81;7401439;19;20384;-91
2023/12/28 12:38:06;;;;;;;4.80;4.27;;;;;;;8.84;100.00;96075.47;7401549;19;20401;-91
2023/12/28 12:40:51;;;;;;;5.70;5.20;;;;;;;8.78;100.00;96055.72;7401290;19;20686;-91
2023/12/28 12:43:34;;;;;;;5.93;5.33;;;;;;;8.45;100.00;96033.31;7399490;19;20861;-91